Time;durP1;ratioP1;P1;durP2;ratioP2;P2;SDS_P1;SDS_P2;PMS_P1;PMS_P2;Temp;Humidity;BMP_temperature;BMP_pressure;BME280_temperature;BME280_humidity;BME280_pressure;Samples;Min_cycle;Max_cycle;Signal;HPM_P1;HPM_P2
2023/12/13 00:01:25;;;;;;;21.20;19.35;;;;;;;8.12;100.00;94898.50;5027822;28;20033;-67
2023/12/13 00:03:51;;;;;;;23.33;21.00;;;;;;;8.11;100.00;94889.78;5028924;28;20474;-67
2023/12/13 00:06:16;;;;;;;22.00;19.73;;;;;;;8.14;100.00;94883.44;5027960;28;20029;-67
2023/12/13 00:08:42;;;;;;;20.35;17.90;;;;;;;8.15;100.00;94869.38;5025838;28;20029;-67
2023/12/13 00:11:08;;;;;;;19.40;17.40;;;;;;;8.14;100.00;94872.97;5023295;28;20083;-67
2023/12/13 00:13:33;;;;;;;15.80;14.40;;;;;;;8.17;100.00;94864.78;5027308;28;20037;-67
2023/12/13 00:16:00;;;;;;;15.07;13.85;;;;;;;8.21;100.00;94854.84;5024615;28;20049;-67
2023/12/13 00:18:25;;;;;;;20.15;18.42;;;;;;;8.13;100.00;94858.19;5026062;28;20025;-68
2023/12/13 00:20:51;;;;;;;38.75;35.25;;;;;;;8.11;100.00;94857.53;5024417;28;20502;-67
2023/12/13 00:23:16;;;;;;;49.33;44.78;;;;;;;8.12;100.00;94867.03;5029166;28;20034;-67
2023/12/13 00:25:42;;;;;;;27.83;25.42;;;;;;;8.13;100.00;94866.06;5027615;28;20033;-68
2023/12/13 00:28:07;;;;;;;19.27;17.55;;;;;;;8.10;100.00;94869.00;5025007;28;20036;-67
2023/12/13 00:30:33;;;;;;;18.70;17.05;;;;;;;8.07;100.00;94879.75;5025137;28;20022;-67
2023/12/13 00:32:59;;;;;;;17.60;16.20;;;;;;;8.05;100.00;94872.03;5030968;28;20036;-67
2023/12/13 00:35:24;;;;;;;18.23;16.73;;;;;;;8.02;100.00;94857.41;5026229;28;20609;-67
2023/12/13 00:37:49;;;;;;;17.35;15.93;;;;;;;8.00;100.00;94861.19;5026753;28;20144;-68
2023/12/13 00:40:15;;;;;;;20.38;18.55;;;;;;;8.01;100.00;94855.78;5031330;28;20103;-67
2023/12/13 00:42:40;;;;;;;22.52;20.33;;;;;;;8.02;100.00;94852.16;5027950;28;20036;-67
2023/12/13 00:45:06;;;;;;;40.50;28.52;;;;;;;8.06;100.00;94830.91;5022447;28;20030;-67
2023/12/13 00:47:32;;;;;;;80.32;52.42;;;;;;;8.05;100.00;94813.53;5030365;28;20040;-67
2023/12/13 00:49:57;;;;;;;139.00;29.30;;;;;;;8.01;100.00;94802.53;5031128;28;20033;-67
2023/12/13 00:52:23;;;;;;;36.50;28.83;;;;;;;8.00;100.00;94806.13;5025202;28;20548;-67
2023/12/13 00:54:48;;;;;;;26.73;24.17;;;;;;;8.08;100.00;94800.97;5000425;28;20116;-68
2023/12/13 00:57:14;;;;;;;28.15;24.90;;;;;;;8.03;100.00;94805.81;5002290;28;20034;-68
2023/12/13 00:59:39;;;;;;;26.55;23.85;;;;;;;8.05;100.00;94808.28;5007345;28;20037;-67
2023/12/13 01:02:06;;;;;;;54.92;26.10;;;;;;;8.13;100.00;94801.34;5006901;28;20511;-68
2023/12/13 01:04:34;;;;;;;51.67;25.10;;;;;;;8.07;100.00;94814.19;5007859;28;20104;-68
2023/12/13 01:07:00;;;;;;;115.75;27.40;;;;;;;8.01;100.00;94818.25;5005347;28;20480;-67
2023/12/13 01:09:25;;;;;;;29.25;26.55;;;;;;;7.95;100.00;94817.03;5008640;28;20060;-67
2023/12/13 01:11:51;;;;;;;29.77;27.08;;;;;;;7.88;100.00;94826.47;5004628;28;20073;-67
2023/12/13 01:14:16;;;;;;;19.85;18.15;;;;;;;7.89;100.00;94815.84;5008900;28;20414;-67
2023/12/13 01:16:42;;;;;;;19.17;17.45;;;;;;;7.93;100.00;94820.78;5008238;28;20029;-67
2023/12/13 01:19:07;;;;;;;19.58;17.77;;;;;;;7.84;100.00;94817.22;5004977;28;20113;-67
2023/12/13 01:21:33;;;;;;;24.10;21.90;;;;;;;7.76;100.00;94822.38;5003294;28;20411;-67
2023/12/13 01:24:00;;;;;;;24.58;22.42;;;;;;;7.71;100.00;94823.66;5010452;28;20833;-67
2023/12/13 01:26:25;;;;;;;22.08;20.08;;;;;;;7.72;100.00;94820.06;5006116;28;20881;-67
2023/12/13 01:28:51;;;;;;;23.25;21.30;;;;;;;7.76;100.00;94819.78;5003576;28;20018;-67
2023/12/13 01:31:17;;;;;;;23.30;21.38;;;;;;;7.77;100.00;94831.91;5002951;28;20037;-67
2023/12/13 01:33:42;;;;;;;20.15;18.55;;;;;;;7.72;100.00;94822.69;5003429;28;20018;-67
2023/12/13 01:36:08;;;;;;;20.42;18.83;;;;;;;7.76;100.00;94825.00;5007399;28;20022;-67
2023/12/13 01:38:34;;;;;;;21.27;19.38;;;;;;;7.76;100.00;94831.09;5004198;28;20038;-67
2023/12/13 01:40:59;;;;;;;19.85;18.05;;;;;;;7.77;100.00;94811.78;5007627;28;20568;-68
2023/12/13 01:43:25;;;;;;;19.75;18.15;;;;;;;7.78;100.00;94834.38;5002343;28;20060;-68
2023/12/13 01:45:53;;;;;;;19.63;17.83;;;;;;;7.79;100.00;94837.81;5003790;28;20791;-68
2023/12/13 01:48:19;;;;;;;19.67;17.98;;;;;;;7.78;100.00;94820.44;5002640;28;20057;-68
2023/12/13 01:50:44;;;;;;;20.33;18.70;;;;;;;7.80;100.00;94836.84;5001570;28;20032;-68
2023/12/13 01:53:12;;;;;;;20.95;19.30;;;;;;;7.80;100.00;94832.44;5008023;28;20716;-69
2023/12/13 01:55:38;;;;;;;21.52;19.60;;;;;;;7.82;100.00;94835.75;5026022;28;20390;-68
2023/12/13 01:58:04;;;;;;;20.42;18.70;;;;;;;7.79;100.00;94832.56;5024847;28;20029;-68
2023/12/13 02:00:32;;;;;;;19.50;18.00;;;;;;;7.89;100.00;94825.50;5023666;28;20021;-68
2023/12/13 02:02:58;;;;;;;17.10;15.77;;;;;;;7.86;100.00;94831.03;5020921;28;20367;-68
2023/12/13 02:05:26;;;;;;;18.05;16.58;;;;;;;7.81;100.00;94836.72;5031042;28;20877;-68
2023/12/13 02:07:51;;;;;;;17.75;16.35;;;;;;;7.80;100.00;94847.31;5023067;28;20084;-68
2023/12/13 02:10:17;;;;;;;19.70;18.10;;;;;;;7.86;100.00;94847.56;5021209;28;20026;-67
2023/12/13 02:12:43;;;;;;;20.95;19.05;;;;;;;7.81;100.00;94838.50;5024778;28;20096;-68
2023/12/13 02:15:10;;;;;;;20.88;19.17;;;;;;;7.73;100.00;94842.69;5024231;28;20113;-68
2023/12/13 02:17:35;;;;;;;20.60;19.00;;;;;;;7.69;100.00;94854.41;5024895;28;20027;-68
2023/12/13 02:20:01;;;;;;;20.33;18.73;;;;;;;7.72;100.00;94848.06;5026842;28;20037;-67
2023/12/13 02:22:26;;;;;;;21.30;19.60;;;;;;;7.72;100.00;94854.13;5025364;28;20032;-68
2023/12/13 02:24:54;;;;;;;19.92;18.35;;;;;;;7.71;100.00;94844.63;5024025;28;20029;-68
2023/12/13 02:27:21;;;;;;;20.55;18.85;;;;;;;7.68;100.00;94850.16;5026940;28;20047;-68
2023/12/13 02:29:48;;;;;;;19.58;17.98;;;;;;;7.74;100.00;94841.72;5020479;28;20494;-68
2023/12/13 02:32:14;;;;;;;20.05;18.45;;;;;;;7.77;100.00;94837.16;5027556;28;20024;-68
2023/12/13 02:34:41;;;;;;;20.38;18.58;;;;;;;7.84;100.00;94810.22;5023161;28;20390;-68
2023/12/13 02:37:06;;;;;;;20.85;19.05;;;;;;;7.77;100.00;94790.81;5024946;28;20149;-68
2023/12/13 02:39:32;;;;;;;20.80;19.10;;;;;;;7.71;100.00;94786.13;5029226;28;20049;-68
2023/12/13 02:41:58;;;;;;;21.48;19.67;;;;;;;7.69;100.00;94778.44;5027239;28;20029;-67
2023/12/13 02:44:23;;;;;;;12.88;11.88;;;;;;;7.68;100.00;94770.72;5027271;28;21749;-67
2023/12/13 02:46:48;;;;;;;6.85;6.45;;;;;;;7.70;100.00;94769.63;5023356;28;20077;-67
2023/12/13 02:49:14;;;;;;;9.40;8.80;;;;;;;7.73;100.00;94752.75;5024228;28;20104;-67
2023/12/13 02:51:39;;;;;;;8.85;8.25;;;;;;;7.77;100.00;94743.66;5023229;28;20377;-68
2023/12/13 02:54:05;;;;;;;10.20;9.40;;;;;;;7.77;100.00;94737.56;5021822;28;20053;-67
2023/12/13 02:56:30;;;;;;;9.23;8.52;;;;;;;7.73;100.00;94727.38;5027397;28;20025;-67
2023/12/13 02:58:55;;;;;;;4.50;4.20;;;;;;;7.78;100.00;94724.34;5024523;28;20537;-67
2023/12/13 03:01:21;;;;;;;5.18;4.88;;;;;;;7.86;100.00;94702.63;5015361;28;20026;-67
2023/12/13 03:03:47;;;;;;;5.78;5.22;;;;;;;7.84;100.00;94692.28;5019938;28;20632;-67
2023/12/13 03:06:12;;;;;;;5.43;5.13;;;;;;;7.74;100.00;94686.31;5020234;28;20033;-67
2023/12/13 03:08:38;;;;;;;5.45;5.05;;;;;;;7.69;100.00;94697.22;5028653;28;20410;-68
2023/12/13 03:11:03;;;;;;;6.30;5.80;;;;;;;7.64;100.00;94696.84;5027064;28;20478;-67
2023/12/13 03:13:29;;;;;;;5.70;5.40;;;;;;;7.73;100.00;94702.97;5021912;28;20561;-67
2023/12/13 03:15:54;;;;;;;5.80;5.30;;;;;;;7.57;100.00;94701.84;5026643;28;20030;-67
2023/12/13 03:18:19;;;;;;;6.78;6.28;;;;;;;7.69;100.00;94704.25;5032061;28;20109;-67
2023/12/13 03:20:45;;;;;;;6.90;6.40;;;;;;;7.87;100.00;94705.09;5035376;28;20032;-67
2023/12/13 03:23:10;;;;;;;7.13;6.32;;;;;;;7.86;100.00;94713.91;5031067;28;20025;-67
2023/12/13 03:25:36;;;;;;;6.32;5.82;;;;;;;7.93;100.00;94706.28;5031712;28;20029;-67
2023/12/13 03:28:02;;;;;;;7.30;5.68;;;;;;;7.77;100.00;94690.41;5029584;28;20437;-67
2023/12/13 03:30:27;;;;;;;6.88;6.22;;;;;;;7.64;100.00;94690.78;5028366;28;20021;-67
2023/12/13 03:32:53;;;;;;;5.70;5.20;;;;;;;7.58;100.00;94703.50;5027858;28;20017;-67
2023/12/13 03:35:18;;;;;;;4.88;4.55;;;;;;;7.55;100.00;94702.97;5032588;28;20499;-67
2023/12/13 03:37:44;;;;;;;5.85;5.40;;;;;;;7.51;100.00;94691.94;5029326;28;20152;-67
2023/12/13 03:40:10;;;;;;;6.40;5.85;;;;;;;7.56;100.00;94694.13;5031669;28;20028;-67
2023/12/13 03:42:35;;;;;;;6.80;6.20;;;;;;;7.53;100.00;94697.06;5021137;28;20037;-67
2023/12/13 03:45:01;;;;;;;6.60;6.10;;;;;;;7.54;100.00;94691.69;5026198;28;20025;-67
2023/12/13 03:47:26;;;;;;;5.35;4.95;;;;;;;7.54;100.00;94675.13;5025021;28;20108;-67
2023/12/13 03:49:52;;;;;;;3.80;2.78;;;;;;;7.44;100.00;94676.03;5025630;28;20025;-67
2023/12/13 03:52:17;;;;;;;2.42;2.30;;;;;;;7.45;100.00;94672.44;5032404;28;20021;-68
2023/12/13 03:54:42;;;;;;;3.55;3.17;;;;;;;7.40;100.00;94684.31;5026832;28;20042;-67
2023/12/13 03:57:08;;;;;;;5.10;4.80;;;;;;;7.42;100.00;94687.59;5023112;28;20045;-67
2023/12/13 03:59:34;;;;;;;6.43;5.90;;;;;;;7.37;100.00;94679.38;5032759;28;20026;-67
2023/12/13 04:01:59;;;;;;;7.30;6.60;;;;;;;7.33;100.00;94683.25;5027662;28;20069;-67
2023/12/13 04:04:25;;;;;;;7.10;6.50;;;;;;;7.28;100.00;94671.41;5040597;28;20068;-68
2023/12/13 04:06:50;;;;;;;10.35;9.57;;;;;;;7.30;100.00;94666.88;5027870;28;20014;-68
2023/12/13 04:09:15;;;;;;;12.13;10.82;;;;;;;7.33;100.00;94673.59;5031404;28;20083;-67
2023/12/13 04:11:41;;;;;;;10.30;9.50;;;;;;;7.33;100.00;94664.94;5022143;28;20386;-67
2023/12/13 04:14:06;;;;;;;13.40;12.30;;;;;;;7.25;100.00;94671.72;5029507;28;20088;-67
2023/12/13 04:16:32;;;;;;;14.68;13.38;;;;;;;7.16;100.00;94672.59;5026789;28;20033;-67
2023/12/13 04:18:58;;;;;;;15.20;14.00;;;;;;;7.13;100.00;94676.31;5025206;28;20030;-67
2023/12/13 04:21:23;;;;;;;15.13;14.00;;;;;;;7.12;100.00;94679.09;5026959;28;20041;-67
2023/12/13 04:23:48;;;;;;;15.60;14.30;;;;;;;7.12;100.00;94679.09;5034651;28;20099;-67
2023/12/13 04:26:14;;;;;;;18.23;16.63;;;;;;;7.10;100.00;94687.09;5026371;28;20104;-67
2023/12/13 04:28:40;;;;;;;15.68;14.35;;;;;;;7.09;100.00;94687.25;5028002;28;20017;-67
2023/12/13 04:31:05;;;;;;;26.45;23.80;;;;;;;7.11;100.00;94695.78;5033325;28;20028;-67
2023/12/13 04:33:33;;;;;;;27.08;24.60;;;;;;;7.15;100.00;94704.97;5023664;28;20040;-68
2023/12/13 04:35:59;;;;;;;18.38;16.65;;;;;;;7.10;100.00;94702.78;5024691;28;20028;-67
2023/12/13 04:38:25;;;;;;;24.00;21.85;;;;;;;7.11;100.00;94717.53;5025586;28;20028;-67
2023/12/13 04:40:50;;;;;;;22.27;20.33;;;;;;;7.12;100.00;94713.94;5027521;28;20112;-67
2023/12/13 04:43:15;;;;;;;15.75;14.55;;;;;;;7.11;100.00;94695.78;5025998;28;20022;-67
2023/12/13 04:45:41;;;;;;;18.23;16.35;;;;;;;7.14;100.00;94701.53;5025818;28;20164;-67
2023/12/13 04:48:06;;;;;;;18.20;16.65;;;;;;;7.18;100.00;94696.84;5023368;28;20033;-67
2023/12/13 04:50:32;;;;;;;18.73;17.13;;;;;;;7.20;100.00;94689.66;5026734;28;20039;-67
2023/12/13 04:52:58;;;;;;;18.45;16.95;;;;;;;7.22;100.00;94684.28;5024692;28;20434;-67
2023/12/13 04:55:23;;;;;;;16.52;14.93;;;;;;;7.25;100.00;94670.91;5032399;28;20029;-67
2023/12/13 04:57:49;;;;;;;17.73;16.13;;;;;;;7.25;100.00;94668.28;5024971;28;20018;-67
2023/12/13 05:00:15;;;;;;;16.27;14.82;;;;;;;7.17;100.00;94672.44;5022535;28;20116;-67
2023/12/13 05:02:40;;;;;;;21.63;19.65;;;;;;;7.09;100.00;94674.97;5025316;28;20026;-67
2023/12/13 05:05:06;;;;;;;15.07;13.57;;;;;;;7.24;100.00;94677.09;5032213;28;20033;-67
2023/12/13 05:07:33;;;;;;;15.98;14.68;;;;;;;7.11;100.00;94682.69;5030803;28;20032;-67
2023/12/13 05:09:59;;;;;;;21.63;19.58;;;;;;;7.01;100.00;94690.59;5024217;28;20041;-67
2023/12/13 05:12:24;;;;;;;20.27;18.60;;;;;;;7.10;100.00;94694.94;5026766;28;20029;-67
2023/12/13 05:14:49;;;;;;;18.17;16.58;;;;;;;7.03;100.00;94710.38;5027294;28;20162;-67
2023/12/13 05:17:15;;;;;;;18.17;16.65;;;;;;;7.03;100.00;94691.25;5026423;28;20026;-67
2023/12/13 05:19:40;;;;;;;14.00;12.77;;;;;;;7.03;100.00;94705.16;5026103;28;20029;-68
2023/12/13 05:22:06;;;;;;;13.45;12.45;;;;;;;7.05;100.00;94697.16;5030825;28;20034;-68
2023/12/13 05:24:33;;;;;;;12.60;11.50;;;;;;;7.05;100.00;94689.31;5019697;28;20502;-68
2023/12/13 05:26:58;;;;;;;12.77;11.48;;;;;;;7.07;100.00;94692.59;5024809;28;20025;-67
2023/12/13 05:29:23;;;;;;;12.73;11.63;;;;;;;7.10;100.00;94700.16;5022398;28;20033;-67
2023/12/13 05:31:49;;;;;;;11.70;10.70;;;;;;;7.08;100.00;94693.44;5023364;28;20014;-67
2023/12/13 05:34:14;;;;;;;13.38;12.05;;;;;;;7.08;100.00;94685.59;5023682;28;20022;-67
2023/12/13 05:36:39;;;;;;;9.63;8.75;;;;;;;7.09;100.00;94692.47;5026637;28;20045;-67
2023/12/13 05:39:07;;;;;;;10.68;9.82;;;;;;;7.09;100.00;94695.91;5025394;28;20029;-67
2023/12/13 05:41:32;;;;;;;11.38;10.40;;;;;;;7.12;100.00;94693.00;5020123;28;20037;-67
2023/12/13 05:43:57;;;;;;;11.30;10.43;;;;;;;7.13;100.00;94684.16;5024681;28;20022;-67
2023/12/13 05:46:23;;;;;;;9.82;9.02;;;;;;;7.11;100.00;94683.50;5026678;28;20093;-68
2023/12/13 05:48:49;;;;;;;11.13;10.32;;;;;;;7.09;100.00;94690.66;5027548;28;20044;-67
2023/12/13 05:51:14;;;;;;;11.23;10.25;;;;;;;7.13;100.00;94688.59;5025557;28;20101;-67
2023/12/13 05:53:39;;;;;;;10.18;9.38;;;;;;;7.05;100.00;94680.63;5025908;28;20045;-68
2023/12/13 05:56:05;;;;;;;27.98;25.58;;;;;;;7.01;100.00;94674.88;5028166;28;20021;-67
2023/12/13 05:58:30;;;;;;;13.75;12.45;;;;;;;7.00;100.00;94665.38;5023067;28;20018;-68
2023/12/13 06:00:56;;;;;;;12.75;10.30;;;;;;;7.10;100.00;94662.72;5028541;28;20087;-68
2023/12/13 06:03:23;;;;;;;13.57;12.48;;;;;;;7.02;100.00;94652.97;5022114;28;20581;-67
2023/12/13 06:05:48;;;;;;;12.38;11.35;;;;;;;7.01;100.00;94667.03;5025787;28;20097;-67
2023/12/13 06:08:13;;;;;;;10.75;9.88;;;;;;;6.94;100.00;94655.47;5023588;28;20497;-67
2023/12/13 06:10:39;;;;;;;24.30;16.77;;;;;;;6.92;100.00;94654.78;5033050;28;20079;-67
2023/12/13 06:13:04;;;;;;;17.52;15.43;;;;;;;6.94;100.00;94647.63;5027323;28;20036;-67
2023/12/13 06:15:30;;;;;;;14.05;12.60;;;;;;;6.91;100.00;94648.75;5025186;28;20079;-67
2023/12/13 06:17:55;;;;;;;13.15;12.05;;;;;;;6.95;100.00;94650.09;5018560;28;20026;-67
2023/12/13 06:20:21;;;;;;;12.77;11.68;;;;;;;6.92;100.00;94639.94;5023149;28;20026;-67
2023/12/13 06:22:47;;;;;;;7.63;6.82;;;;;;;6.87;100.00;94642.97;5025401;28;20029;-67
2023/12/13 06:25:13;;;;;;;7.75;7.05;;;;;;;6.84;100.00;94651.13;5025584;28;20037;-67
2023/12/13 06:27:38;;;;;;;7.97;6.80;;;;;;;6.80;100.00;94652.38;5022076;28;20068;-67
2023/12/13 06:30:04;;;;;;;7.10;6.20;;;;;;;6.77;100.00;94655.28;5023171;28;20169;-66
2023/12/13 06:32:29;;;;;;;6.82;6.22;;;;;;;6.70;100.00;94641.97;5027895;28;20753;-67
2023/12/13 06:34:55;;;;;;;7.57;7.00;;;;;;;6.72;100.00;94653.09;5021419;28;20443;-66
2023/12/13 06:37:20;;;;;;;13.35;12.15;;;;;;;6.93;100.00;94652.03;5025869;28;20095;-66
2023/12/13 06:39:46;;;;;;;9.40;8.70;;;;;;;7.13;100.00;94660.59;5027887;28;20038;-66
2023/12/13 06:42:11;;;;;;;10.85;9.95;;;;;;;6.86;100.00;94657.03;5028636;28;20798;-67
2023/12/13 06:44:37;;;;;;;11.93;10.80;;;;;;;6.91;100.00;94650.53;5025840;28;20033;-66
2023/12/13 06:47:04;;;;;;;9.18;8.35;;;;;;;6.94;100.00;94669.38;5017028;28;20026;-66
2023/12/13 06:49:31;;;;;;;7.55;6.95;;;;;;;6.93;100.00;94666.91;5022149;28;20021;-66
2023/12/13 06:51:59;;;;;;;5.90;5.40;;;;;;;7.02;100.00;94666.06;5020776;28;20075;-67
2023/12/13 06:54:24;;;;;;;4.95;4.45;;;;;;;7.28;100.00;94662.75;5029489;28;20045;-66
2023/12/13 06:56:50;;;;;;;7.50;6.90;;;;;;;7.06;100.00;94662.19;5022671;28;20030;-66
2023/12/13 06:59:15;;;;;;;5.47;4.95;;;;;;;7.10;100.00;94658.28;5024612;28;20033;-67
2023/12/13 07:01:41;;;;;;;4.22;3.92;;;;;;;7.31;100.00;94654.59;5030250;28;20044;-66
2023/12/13 07:04:06;;;;;;;2.20;2.10;;;;;;;7.62;100.00;94646.38;5020199;28;20394;-66
2023/12/13 07:06:32;;;;;;;2.33;2.22;;;;;;;7.51;100.00;94657.09;5025344;28;20069;-66
2023/12/13 07:08:59;;;;;;;4.95;3.22;;;;;;;7.61;100.00;94655.22;5017976;28;20021;-67
2023/12/13 07:11:24;;;;;;;4.78;4.38;;;;;;;7.50;100.00;94653.63;5023892;28;20025;-66
2023/12/13 07:13:50;;;;;;;3.90;3.60;;;;;;;7.31;100.00;94646.75;5022028;28;20025;-66
2023/12/13 07:16:15;;;;;;;5.30;4.80;;;;;;;7.25;100.00;94626.41;5021784;28;20094;-66
2023/12/13 07:18:40;;;;;;;3.53;2.60;;;;;;;7.13;100.00;94626.59;5027252;28;20075;-66
2023/12/13 07:21:06;;;;;;;5.03;3.63;;;;;;;7.17;100.00;94640.22;5025421;28;20029;-67
2023/12/13 07:23:33;;;;;;;4.47;3.90;;;;;;;7.21;100.00;94641.56;5027089;28;20033;-67
2023/12/13 07:25:59;;;;;;;4.25;3.95;;;;;;;7.15;100.00;94629.06;5023177;28;20033;-67
2023/12/13 07:28:24;;;;;;;39.78;25.15;;;;;;;7.02;100.00;94611.91;5009224;28;20057;-67
2023/12/13 07:30:50;;;;;;;12.25;7.47;;;;;;;7.05;100.00;94612.59;5019992;28;20157;-66
2023/12/13 07:33:15;;;;;;;2.30;2.10;;;;;;;6.95;100.00;94599.56;5019822;28;20028;-66
2023/12/13 07:35:45;;;;;;;2.88;2.15;;;;;;;6.87;100.00;94605.53;5022496;28;20413;-66
2023/12/13 07:38:10;;;;;;;2.67;2.40;;;;;;;6.90;100.00;94607.84;5026625;28;20033;-66
2023/12/13 07:40:35;;;;;;;2.00;1.90;;;;;;;6.81;100.00;94620.00;5021017;28;20013;-66
2023/12/13 07:43:01;;;;;;;13.77;11.65;;;;;;;6.65;100.00;94632.88;5025698;28;20049;-66
2023/12/13 07:45:26;;;;;;;25.65;23.10;;;;;;;6.58;100.00;94643.94;5027802;28;20474;-66
2023/12/13 07:47:51;;;;;;;45.15;37.97;;;;;;;6.62;100.00;94643.63;5021898;28;20376;-66
2023/12/13 07:50:17;;;;;;;22.60;16.90;;;;;;;6.72;100.00;94640.00;5024488;28;20026;-67
2023/12/13 07:52:42;;;;;;;17.85;13.18;;;;;;;6.68;100.00;94640.44;5021480;28;20077;-66
2023/12/13 07:55:08;;;;;;;14.95;13.57;;;;;;;6.68;100.00;94640.44;5021854;28;20501;-66
2023/12/13 07:57:34;;;;;;;12.50;11.40;;;;;;;6.65;100.00;94632.88;5028881;28;20105;-66
2023/12/13 08:00:00;;;;;;;8.95;8.15;;;;;;;6.66;100.00;94645.00;5020794;28;20021;-66
2023/12/13 08:02:26;;;;;;;8.48;7.78;;;;;;;6.63;100.00;94640.88;5026505;28;20530;-66
2023/12/13 08:04:51;;;;;;;5.45;5.03;;;;;;;6.61;100.00;94647.22;5023580;28;20029;-66
2023/12/13 08:07:16;;;;;;;4.10;3.90;;;;;;;6.62;100.00;94638.41;5026263;28;20032;-66
2023/12/13 08:09:43;;;;;;;4.13;3.92;;;;;;;6.67;100.00;94634.41;5022032;28;20078;-66
2023/12/13 08:12:08;;;;;;;7.40;4.97;;;;;;;6.71;100.00;94627.91;5021937;28;20470;-65
2023/12/13 08:14:34;;;;;;;5.60;5.07;;;;;;;6.69;100.00;94629.00;5028972;28;20112;-65
2023/12/13 08:17:04;;;;;;;5.22;4.72;;;;;;;6.65;100.00;94630.28;5024291;28;20636;-66
2023/12/13 08:19:30;;;;;;;17.33;14.93;;;;;;;6.59;100.00;94629.88;5022391;28;20029;-67
2023/12/13 08:21:55;;;;;;;14.38;12.88;;;;;;;6.67;100.00;94630.94;5028972;28;20022;-67
2023/12/13 08:24:21;;;;;;;16.25;11.30;;;;;;;6.65;100.00;94623.25;5028340;28;20022;-66
2023/12/13 08:26:46;;;;;;;11.27;10.13;;;;;;;6.73;100.00;94619.91;5028110;28;20022;-66
2023/12/13 08:29:11;;;;;;;4.57;3.50;;;;;;;6.77;100.00;94621.28;5022350;28;20048;-67
2023/12/13 08:31:37;;;;;;;2.47;2.25;;;;;;;6.70;100.00;94618.41;5023990;28;20369;-67
2023/12/13 08:34:02;;;;;;;2.70;2.50;;;;;;;6.65;100.00;94615.41;5025390;28;20033;-67
2023/12/13 08:36:28;;;;;;;6.78;6.13;;;;;;;6.62;100.00;94597.38;5027093;28;20029;-68
2023/12/13 08:38:54;;;;;;;17.23;14.35;;;;;;;6.57;100.00;94589.97;5033040;28;20029;-67
2023/12/13 08:41:20;;;;;;;16.08;12.30;;;;;;;6.56;100.00;94592.72;5028369;28;20025;-68
2023/12/13 08:43:45;;;;;;;16.65;12.05;;;;;;;6.60;100.00;94596.69;5029142;28;20021;-67
2023/12/13 08:46:11;;;;;;;27.92;19.33;;;;;;;6.57;100.00;94605.66;5023947;28;20040;-67
2023/12/13 08:48:36;;;;;;;14.18;8.35;;;;;;;6.55;100.00;94612.84;5024427;28;20025;-67
2023/12/13 08:51:02;;;;;;;8.60;7.70;;;;;;;6.56;100.00;94619.72;5030340;28;20173;-67
2023/12/13 08:53:28;;;;;;;5.97;5.38;;;;;;;6.54;100.00;94616.41;5023590;28;20045;-67
2023/12/13 08:55:53;;;;;;;6.57;3.30;;;;;;;6.53;100.00;94608.72;5026366;28;20029;-67
2023/12/13 08:58:19;;;;;;;1.90;1.80;;;;;;;6.56;100.00;94614.47;5024806;28;20030;-67
2023/12/13 09:00:44;;;;;;;5.28;4.78;;;;;;;6.68;100.00;94609.06;5024236;28;20026;-67
2023/12/13 09:03:10;;;;;;;6.82;6.13;;;;;;;6.71;100.00;94614.00;5026695;28;20049;-67
2023/12/13 09:05:37;;;;;;;5.70;5.20;;;;;;;6.80;100.00;94609.69;5020896;28;20819;-67
2023/12/13 09:08:03;;;;;;;8.00;6.40;;;;;;;6.88;100.00;94605.38;5024756;28;20044;-67
2023/12/13 09:10:29;;;;;;;35.78;30.30;;;;;;;6.95;100.00;94620.47;5028807;28;20104;-67
2023/12/13 09:12:54;;;;;;;8.60;7.80;;;;;;;6.94;100.00;94621.44;5028084;28;20045;-67
2023/12/13 09:15:20;;;;;;;4.82;4.20;;;;;;;6.85;100.00;94623.97;5028435;28;20030;-68
2023/12/13 09:17:46;;;;;;;3.15;2.95;;;;;;;6.79;100.00;94628.97;5029240;28;20052;-67
2023/12/13 09:20:15;;;;;;;12.25;11.05;;;;;;;6.76;100.00;94634.50;5030657;28;20025;-67
2023/12/13 09:22:42;;;;;;;12.90;11.07;;;;;;;6.77;100.00;94630.91;5029342;28;20021;-67
2023/12/13 09:25:14;;;;;;;13.38;12.20;;;;;;;6.72;100.00;94639.19;5027977;28;20030;-68
2023/12/13 09:27:40;;;;;;;11.45;10.40;;;;;;;6.74;100.00;94640.69;5020012;28;20029;-67
2023/12/13 09:30:09;;;;;;;12.55;11.43;;;;;;;6.77;100.00;94639.59;5025003;28;20021;-68
2023/12/13 09:32:34;;;;;;;8.50;7.70;;;;;;;6.85;100.00;94641.47;5024206;28;20025;-68
2023/12/13 09:34:59;;;;;;;29.45;25.13;;;;;;;6.93;100.00;94641.59;5020925;28;20022;-68
2023/12/13 09:37:25;;;;;;;26.60;23.92;;;;;;;7.41;100.00;94628.34;5026351;28;20630;-67
2023/12/13 09:39:50;;;;;;;13.02;11.93;;;;;;;7.57;100.00;94638.16;5028325;28;20025;-67
2023/12/13 09:42:17;;;;;;;2.70;2.50;;;;;;;7.82;100.00;94641.00;5024645;28;20502;-67
2023/12/13 09:44:44;;;;;;;17.10;13.65;;;;;;;8.07;100.00;94655.13;5024170;28;20025;-68
2023/12/13 09:47:10;;;;;;;12.93;11.60;;;;;;;8.24;100.00;94653.44;5023820;28;20029;-68
2023/12/13 09:49:36;;;;;;;4.25;3.97;;;;;;;8.15;100.00;94667.47;5023848;28;20025;-67
2023/12/13 09:52:03;;;;;;;8.70;7.90;;;;;;;8.37;100.00;94666.16;5022678;28;20022;-67
2023/12/13 09:54:30;;;;;;;11.93;10.85;;;;;;;8.69;100.00;94667.38;5022089;28;20449;-68
2023/12/13 09:56:56;;;;;;;8.82;8.02;;;;;;;9.06;100.00;94670.69;5022726;28;20021;-68
2023/12/13 09:59:21;;;;;;;4.20;3.90;;;;;;;9.17;100.00;94670.41;5020267;28;20536;-68
2023/12/13 10:01:47;;;;;;;3.30;3.10;;;;;;;9.24;100.00;94681.06;5027130;28;20102;-68
2023/12/13 10:04:14;;;;;;;3.75;3.38;;;;;;;9.45;100.00;94688.56;5025164;28;20105;-68
2023/12/13 10:06:39;;;;;;;4.07;3.70;;;;;;;9.79;100.00;94689.44;5038599;28;20092;-68
2023/12/13 10:09:07;;;;;;;3.40;3.20;;;;;;;10.20;100.00;94706.28;5026725;28;20031;-68
2023/12/13 10:11:33;;;;;;;7.05;6.53;;;;;;;10.52;100.00;94726.53;5022463;28;20025;-68
2023/12/13 10:13:59;;;;;;;4.70;4.30;;;;;;;10.70;100.00;94750.03;5023395;28;20036;-68
2023/12/13 10:16:27;;;;;;;3.22;2.95;;;;;;;10.67;100.00;94774.06;5028083;28;20378;-68
2023/12/13 10:18:52;;;;;;;2.88;2.67;;;;;;;10.93;100.00;94767.78;5020567;28;20677;-68
2023/12/13 10:21:18;;;;;;;3.13;2.85;;;;;;;11.24;100.00;94742.53;5025647;28;20033;-68
2023/12/13 10:23:43;;;;;;;2.58;2.38;;;;;;;11.32;100.00;94713.50;5023303;28;20013;-68
2023/12/13 10:26:10;;;;;;;3.88;2.95;;;;;;;11.43;100.00;94705.25;5022872;28;20037;-68
2023/12/13 10:28:35;;;;;;;2.00;1.90;;;;;;;11.48;100.00;94707.34;5026913;28;20025;-68
2023/12/13 10:31:02;;;;;;;3.13;2.10;;;;;;;11.30;100.00;94695.25;5027986;28;20052;-68
2023/12/13 10:33:27;;;;;;;3.22;2.97;;;;;;;11.22;100.00;94712.91;5030491;28;20080;-68
2023/12/13 10:35:57;;;;;;;2.22;2.03;;;;;;;10.92;100.00;94705.56;5022529;28;20018;-68
2023/12/13 10:38:25;;;;;;;2.95;2.53;;;;;;;10.81;100.00;94698.00;5021843;28;20018;-68
2023/12/13 10:40:51;;;;;;;2.88;1.80;;;;;;;10.73;100.00;94698.88;5025285;28;20032;-68
2023/12/13 10:43:19;;;;;;;2.13;1.90;;;;;;;10.50;100.00;94689.03;5025612;28;20407;-68
2023/12/13 10:45:55;;;;;;;2.55;1.70;;;;;;;10.50;100.00;94688.19;5030272;28;20133;-68
2023/12/13 10:48:26;;;;;;;1.98;1.88;;;;;;;10.36;100.00;94687.03;5019173;28;20017;-68
2023/12/13 10:50:53;;;;;;;2.60;2.40;;;;;;;10.23;100.00;94696.22;5028275;28;20444;-67
2023/12/13 10:53:20;;;;;;;5.18;2.05;;;;;;;10.27;100.00;94696.72;5040596;28;20049;-68
2023/12/13 10:55:46;;;;;;;4.65;2.97;;;;;;;10.33;100.00;94693.44;5017562;28;20022;-68
2023/12/13 10:58:12;;;;;;;5.45;3.17;;;;;;;10.09;100.00;94692.44;5020285;28;20045;-68
2023/12/13 11:00:39;;;;;;;1.50;1.40;;;;;;;10.13;100.00;94693.75;5029700;28;20086;-68
2023/12/13 11:03:15;;;;;;;0.90;0.90;;;;;;;10.17;100.00;94694.25;5024927;28;20113;-67
2023/12/13 11:05:41;;;;;;;1.30;1.20;;;;;;;9.88;100.00;94695.56;5018045;28;20030;-68
2023/12/13 11:08:17;;;;;;;1.27;1.27;;;;;;;9.91;100.00;94692.59;5022878;28;20026;-68
2023/12/13 11:11:03;;;;;;;3.65;3.35;;;;;;;9.59;100.00;94686.28;5023618;28;20118;-68
2023/12/13 11:13:29;;;;;;;1.10;1.10;;;;;;;9.69;100.00;94692.22;5029063;28;20112;-68
2023/12/13 11:15:55;;;;;;;1.95;1.10;;;;;;;9.66;100.00;94689.09;5025881;28;20028;-68
2023/12/13 11:18:20;;;;;;;1.27;1.20;;;;;;;9.51;100.00;94692.34;5010245;28;20176;-68